Time;durP1;ratioP1;P1;durP2;ratioP2;P2;SDS_P1;SDS_P2;PMS_P1;PMS_P2;Temp;Humidity;BMP_temperature;BMP_pressure;BME280_temperature;BME280_humidity;BME280_pressure;Samples;Min_cycle;Max_cycle;Signal;HPM_P1;HPM_P2
2023/11/06 00:03:11;;;;;;;3.40;2.13;;;8.50;99.90;;;8.89;100.00;96525.34;10450391;28;20221;-65
2023/11/06 00:08:14;;;;;;;3.38;2.33;;;8.40;99.90;;;8.92;100.00;96530.56;10447408;28;20221;-64
2023/11/06 00:13:19;;;;;;;3.13;2.57;;;8.40;99.90;;;8.91;100.00;96536.47;10445488;28;20232;-64
2023/11/06 00:18:23;;;;;;;2.10;2.00;;;8.40;99.90;;;8.90;100.00;96544.94;10443590;28;20236;-64
2023/11/06 00:23:26;;;;;;;2.55;2.00;;;8.40;99.90;;;8.82;100.00;96547.97;10443709;28;20312;-65
2023/11/06 00:28:31;;;;;;;2.80;2.20;;;8.30;99.90;;;8.78;100.00;96539.31;10443439;28;20225;-65
2023/11/06 00:33:35;;;;;;;2.60;2.40;;;8.30;99.90;;;8.77;100.00;96542.66;10445233;28;20275;-64
2023/11/06 00:38:38;;;;;;;3.33;2.27;;;8.30;99.90;;;8.77;100.00;96543.53;10448592;28;20267;-64
2023/11/06 00:43:44;;;;;;;3.87;2.20;;;8.20;99.90;;;8.75;100.00;96549.38;10451378;28;20280;-64
2023/11/06 00:48:47;;;;;;;3.33;2.23;;;8.20;99.90;;;8.80;100.00;96555.53;10444899;28;20655;-64
2023/11/06 00:53:50;;;;;;;2.60;2.03;;;8.30;99.90;;;8.88;100.00;96561.84;10446123;28;20225;-66
2023/11/06 00:58:55;;;;;;;3.15;2.42;;;8.30;99.90;;;8.84;100.00;96567.59;10442186;28;20236;-65
2023/11/06 01:03:58;;;;;;;3.77;2.30;;;8.30;99.90;;;8.81;100.00;96580.19;10449700;28;20229;-65
2023/11/06 01:09:01;;;;;;;5.90;2.60;;;8.30;99.90;;;9.00;100.00;96581.88;10451583;28;20732;-64
2023/11/06 01:14:06;;;;;;;3.90;2.20;;;8.30;99.90;;;8.89;100.00;96581.41;10460397;28;20236;-65
2023/11/06 01:19:09;;;;;;;3.25;2.33;;;8.30;99.90;;;8.98;100.00;96579.22;10454616;28;20229;-64
2023/11/06 01:24:12;;;;;;;5.32;2.80;;;8.30;99.90;;;8.93;100.00;96580.75;10455937;28;20636;-65
2023/11/06 01:29:17;;;;;;;2.47;2.20;;;8.40;99.90;;;8.92;100.00;96584.06;10452531;28;20236;-65
2023/11/06 01:34:20;;;;;;;5.90;2.47;;;8.30;99.90;;;8.87;100.00;96584.69;10452630;28;20307;-65
2023/11/06 01:39:23;;;;;;;3.53;2.35;;;8.30;99.90;;;8.88;100.00;96589.84;10456497;28;20233;-65
2023/11/06 01:44:28;;;;;;;3.33;2.23;;;8.30;99.90;;;8.85;100.00;96591.41;10453678;28;20303;-65
2023/11/06 01:49:32;;;;;;;2.97;2.17;;;8.30;99.90;;;8.88;100.00;96591.53;10458117;28;20234;-66
2023/11/06 01:54:35;;;;;;;2.57;2.10;;;8.30;99.90;;;8.85;100.00;96607.56;10453074;28;20227;-66
2023/11/06 01:59:40;;;;;;;3.97;2.30;;;8.20;99.90;;;8.92;100.00;96614.66;10447502;28;20228;-65
2023/11/06 02:04:47;;;;;;;2.88;2.20;;;8.20;99.90;;;8.89;100.00;96614.53;10446761;28;20216;-64
2023/11/06 02:09:51;;;;;;;3.80;2.30;;;8.20;99.90;;;8.92;100.00;96622.31;10445153;28;20571;-65
2023/11/06 02:14:57;;;;;;;4.03;2.27;;;8.20;99.90;;;8.86;100.00;96631.38;10446793;28;20221;-64
2023/11/06 02:20:00;;;;;;;3.60;2.50;;;8.30;99.90;;;9.22;100.00;96619.34;10450275;28;20232;-64
2023/11/06 02:25:05;;;;;;;3.50;2.00;;;8.40;99.90;;;9.02;100.00;96627.00;10447976;28;20225;-64
2023/11/06 02:30:09;;;;;;;3.40;2.55;;;8.40;99.90;;;9.07;100.00;96639.06;10444411;28;20549;-63
2023/11/06 02:35:13;;;;;;;3.23;2.23;;;8.40;99.90;;;9.07;100.00;96639.06;10449711;28;20291;-64
2023/11/06 02:40:17;;;;;;;1.92;1.75;;;8.50;99.90;;;9.13;100.00;96652.94;10450399;28;20229;-65
2023/11/06 02:45:21;;;;;;;2.53;2.20;;;8.60;99.90;;;9.09;100.00;96643.41;10444351;28;20605;-64
2023/11/06 02:50:26;;;;;;;3.17;1.80;;;8.50;99.90;;;8.90;100.00;96646.88;10448314;28;20240;-64
2023/11/06 02:55:32;;;;;;;3.27;1.90;;;8.40;99.90;;;8.82;100.00;96652.44;10449895;28;20238;-64
2023/11/06 03:00:35;;;;;;;2.78;2.08;;;8.30;99.90;;;8.93;100.00;96663.97;10454388;28;20308;-66
2023/11/06 03:05:39;;;;;;;2.70;1.92;;;8.30;99.90;;;8.96;100.00;96671.75;10452134;28;20243;-66
2023/11/06 03:10:43;;;;;;;1.80;1.27;;;8.30;99.90;;;9.19;100.00;96675.28;10454507;28;20233;-63
2023/11/06 03:15:47;;;;;;;1.83;1.73;;;8.40;99.90;;;8.97;100.00;96689.63;10451576;28;20682;-65
2023/11/06 03:20:50;;;;;;;2.10;1.73;;;8.40;99.90;;;8.86;100.00;96695.94;10453395;28;20223;-65
2023/11/06 03:25:55;;;;;;;2.60;1.88;;;8.30;99.90;;;9.03;100.00;96691.56;10456329;28;20255;-65
2023/11/06 03:30:58;;;;;;;2.08;1.88;;;8.30;99.90;;;9.07;100.00;96690.94;10443804;28;20237;-64
2023/11/06 03:36:04;;;;;;;4.20;2.10;;;8.30;99.90;;;8.91;100.00;96694.47;10453924;28;20231;-64
2023/11/06 03:41:08;;;;;;;2.40;1.90;;;8.30;99.90;;;9.12;100.00;96708.94;10450907;28;20707;-63
2023/11/06 03:46:12;;;;;;;2.13;1.53;;;8.40;99.90;;;9.11;100.00;96717.41;10447307;28;20233;-65
2023/11/06 03:51:15;;;;;;;2.60;2.10;;;8.50;99.90;;;9.12;100.00;96734.44;10447229;28;20739;-65
2023/11/06 03:56:19;;;;;;;5.20;2.17;;;8.50;99.90;;;9.28;100.00;96730.91;10449618;28;20235;-64
2023/11/06 04:01:23;;;;;;;2.90;1.53;;;8.60;99.90;;;9.27;100.00;96734.22;10451130;28;20234;-65
2023/11/06 04:06:26;;;;;;;4.10;1.90;;;8.70;99.90;;;9.27;100.00;96745.34;10445007;28;20717;-64
2023/11/06 04:11:30;;;;;;;2.73;1.80;;;8.60;99.90;;;9.50;99.62;96736.13;10444874;28;20236;-65
2023/11/06 04:16:34;;;;;;;4.57;1.75;;;8.80;99.90;;;9.54;97.23;96739.66;10443598;28;20276;-65
2023/11/06 04:21:37;;;;;;;2.27;1.90;;;9.10;99.90;;;9.61;95.89;96749.31;10451234;28;20228;-64
2023/11/06 04:26:42;;;;;;;4.68;1.90;;;9.40;99.90;;;9.74;95.92;96754.13;10443544;28;20232;-64
2023/11/06 04:31:45;;;;;;;3.20;1.90;;;9.50;99.90;;;9.79;96.23;96765.41;10445285;28;20912;-65
2023/11/06 04:36:48;;;;;;;3.55;1.63;;;9.30;99.90;;;9.83;94.70;96764.72;10457139;28;20240;-65
2023/11/06 04:41:53;;;;;;;2.40;1.73;;;9.40;99.90;;;9.87;95.37;96775.94;10445833;28;20328;-64
2023/11/06 04:46:56;;;;;;;3.58;1.90;;;9.30;99.90;;;9.85;94.92;96768.22;10447033;28;20719;-64
2023/11/06 04:51:59;;;;;;;2.90;1.75;;;9.50;99.90;;;9.99;95.10;96770.50;10437818;28;20707;-64
2023/11/06 04:57:04;;;;;;;2.60;1.80;;;9.50;99.90;;;10.00;95.60;96777.31;10450338;28;20224;-65
2023/11/06 05:02:07;;;;;;;2.00;1.42;;;9.40;99.90;;;9.90;95.34;96792.25;10442021;28;20589;-63
2023/11/06 05:07:10;;;;;;;4.35;1.65;;;9.30;99.90;;;9.92;95.71;96805.94;10442532;28;20607;-65
2023/11/06 05:12:15;;;;;;;3.15;1.92;;;9.30;99.90;;;9.99;95.13;96806.22;10441715;28;20241;-64
2023/11/06 05:17:18;;;;;;;5.32;1.50;;;9.20;99.90;;;9.84;95.82;96801.31;10435198;28;20224;-64
2023/11/06 05:22:22;;;;;;;2.50;1.73;;;9.20;99.90;;;9.80;94.99;96818.19;10440262;28;20223;-64
2023/11/06 05:27:26;;;;;;;3.55;1.70;;;9.10;99.90;;;9.79;95.07;96824.13;10434583;28;20232;-64
2023/11/06 05:32:29;;;;;;;3.60;1.70;;;9.00;99.90;;;9.74;93.95;96824.72;10440258;28;20221;-66
2023/11/06 05:37:32;;;;;;;3.45;1.60;;;9.00;99.90;;;9.76;93.82;96834.19;10441817;28;20232;-66
2023/11/06 05:42:37;;;;;;;1.90;1.80;;;9.00;99.90;;;9.72;94.70;96851.84;10451357;28;20642;-65
2023/11/06 05:47:41;;;;;;;2.88;1.55;;;9.00;99.90;;;9.81;95.10;96860.75;10452299;28;20315;-65
2023/11/06 05:52:45;;;;;;;3.15;1.70;;;9.00;99.90;;;9.95;92.79;96855.38;10443596;28;20283;-65
2023/11/06 05:57:50;;;;;;;2.80;1.70;;;9.40;99.90;;;9.86;95.23;96866.94;10453640;28;20700;-65
2023/11/06 06:02:54;;;;;;;2.05;1.60;;;9.30;99.90;;;10.00;93.46;96866.69;10455712;28;20258;-65
2023/11/06 06:07:57;;;;;;;3.83;1.63;;;9.30;99.90;;;10.07;93.08;96873.78;10455705;28;20236;-64
2023/11/06 06:13:02;;;;;;;2.50;1.70;;;9.40;99.90;;;10.17;93.11;96891.25;10459362;28;20225;-65
2023/11/06 06:18:06;;;;;;;2.30;1.65;;;9.40;99.90;;;10.03;94.90;96900.84;10450890;28;20682;-66
2023/11/06 06:23:09;;;;;;;1.75;1.65;;;9.40;99.90;;;10.00;94.09;96895.63;10449367;28;20253;-65
2023/11/06 06:28:14;;;;;;;2.38;2.20;;;9.30;99.90;;;9.82;95.05;96905.91;10452349;28;20270;-66
2023/11/06 06:33:17;;;;;;;2.30;2.10;;;9.10;99.90;;;9.55;97.68;96922.50;10446762;28;20231;-66
2023/11/06 06:38:21;;;;;;;3.00;2.00;;;8.80;99.90;;;9.41;97.56;96938.06;10454089;28;20228;-64
2023/11/06 06:43:26;;;;;;;2.72;2.00;;;8.70;99.90;;;9.58;96.53;96931.16;10455715;28;20216;-64
2023/11/06 06:48:29;;;;;;;1.90;1.70;;;8.70;99.90;;;9.49;97.09;96930.75;10455922;28;20610;-66
2023/11/06 06:53:34;;;;;;;1.95;1.70;;;8.70;99.90;;;9.55;98.02;96942.91;10462059;28;20228;-65
2023/11/06 06:58:38;;;;;;;2.00;1.70;;;8.90;99.90;;;9.75;96.85;96939.59;10448718;28;20752;-65
2023/11/06 07:03:41;;;;;;;2.00;1.80;;;9.10;99.90;;;10.00;97.65;96948.38;10456886;28;20225;-65
2023/11/06 07:08:45;;;;;;;1.90;1.73;;;9.30;99.90;;;10.40;96.69;96950.13;10459036;28;20232;-65
2023/11/06 07:13:49;;;;;;;2.67;1.60;;;9.70;99.90;;;10.85;93.95;96955.44;10452417;28;20739;-66
2023/11/06 07:18:53;;;;;;;1.90;1.80;;;10.10;99.90;;;11.09;93.42;96955.53;10451430;28;20241;-65
2023/11/06 07:23:56;;;;;;;1.90;1.80;;;10.30;99.90;;;11.23;92.12;96954.41;10435883;28;20225;-65
2023/11/06 07:29:00;;;;;;;2.33;1.60;;;10.50;99.90;;;11.41;91.33;96961.94;10438002;28;20230;-67
2023/11/06 07:34:06;;;;;;;1.55;1.45;;;10.70;99.90;;;11.78;90.62;96968.47;10435756;28;20232;-65
2023/11/06 07:39:09;;;;;;;3.20;2.83;;;11.00;99.90;;;12.04;88.17;96967.78;10445269;28;20279;-66
2023/11/06 07:44:14;;;;;;;1.80;1.70;;;11.30;99.90;;;12.31;85.23;96967.06;10445711;28;20229;-66
2023/11/06 07:49:17;;;;;;;2.20;1.63;;;11.50;99.90;;;12.71;83.23;96977.00;10448093;28;20231;-66
2023/11/06 07:54:20;;;;;;;2.33;1.80;;;11.80;99.90;;;12.95;81.63;96976.94;10450947;28;20236;-67
2023/11/06 07:59:25;;;;;;;2.58;1.65;;;12.10;99.90;;;13.08;80.33;96976.53;10447256;28;20228;-65
2023/11/06 08:04:29;;;;;;;2.10;1.90;;;12.30;99.90;;;13.25;79.33;96977.13;10446342;28;20316;-65
2023/11/06 08:09:32;;;;;;;1.95;1.58;;;12.50;99.90;;;13.39;77.57;96980.16;10445972;28;20235;-65
2023/11/06 08:14:37;;;;;;;1.52;1.35;;;12.50;99.90;;;13.41;76.18;96975.91;10453379;28;20539;-65
2023/11/06 08:19:41;;;;;;;1.83;1.70;;;12.80;99.90;;;13.70;75.01;96988.78;10447660;28;20221;-65
2023/11/06 08:24:45;;;;;;;1.65;1.55;;;12.90;99.90;;;13.62;75.28;96991.13;10442438;28;20236;-66
2023/11/06 08:29:50;;;;;;;3.25;1.73;;;13.00;99.90;;;13.68;73.99;97000.72;10439156;28;20747;-65
2023/11/06 08:34:53;;;;;;;2.97;1.60;;;13.10;99.90;;;13.77;73.21;97006.13;10445282;28;20232;-65
2023/11/06 08:39:56;;;;;;;1.73;1.50;;;13.20;99.90;;;13.80;72.13;97013.94;10445310;28;20239;-64
2023/11/06 08:45:01;;;;;;;1.73;1.63;;;13.30;99.90;;;13.59;72.06;97016.72;10447813;28;20788;-67
2023/11/06 08:50:05;;;;;;;2.58;1.63;;;13.00;99.90;;;13.39;73.35;97023.78;10450865;28;20252;-66
2023/11/06 08:55:09;;;;;;;2.95;1.55;;;12.70;99.90;;;13.23;74.04;97031.75;10444695;28;20335;-65
2023/11/06 09:00:15;;;;;;;2.45;1.80;;;12.40;99.90;;;13.01;74.45;97036.16;10446746;28;20228;-65
2023/11/06 09:05:18;;;;;;;2.65;1.50;;;12.40;99.90;;;13.02;74.83;97043.03;10447753;28;20235;-65
2023/11/06 09:10:22;;;;;;;2.40;1.55;;;12.40;99.90;;;13.10;75.46;97045.84;10440867;28;20230;-65
2023/11/06 09:15:26;;;;;;;1.27;1.17;;;12.40;99.90;;;12.93;73.73;97058.09;10444415;28;20229;-65
2023/11/06 09:20:31;;;;;;;1.63;1.52;;;12.20;99.90;;;13.04;75.41;97061.91;10446353;28;20221;-65
2023/11/06 09:25:34;;;;;;;3.75;2.08;;;12.30;99.90;;;13.29;73.96;97053.38;10443658;28;20644;-65
2023/11/06 09:30:41;;;;;;;3.17;1.63;;;12.70;99.90;;;13.71;72.68;97054.75;10454268;28;20224;-64
2023/11/06 09:35:44;;;;;;;2.00;1.70;;;13.10;99.90;;;13.89;70.76;97068.16;10458371;28;20229;-66
2023/11/06 09:40:47;;;;;;;1.90;1.60;;;13.20;99.90;;;14.17;70.11;97059.59;10456276;28;20625;-65
2023/11/06 09:45:53;;;;;;;1.88;1.65;;;13.60;99.90;;;14.40;69.09;97073.13;10457665;28;20233;-65
2023/11/06 09:50:57;;;;;;;3.83;1.50;;;13.80;99.90;;;14.86;67.94;97077.03;10453469;28;20226;-65
2023/11/06 09:56:02;;;;;;;2.50;1.60;;;14.30;99.90;;;15.11;63.53;97072.56;10462438;28;20307;-66
2023/11/06 10:01:08;;;;;;;2.05;1.45;;;14.70;99.90;;;14.85;62.75;97076.97;10461344;28;20241;-66
2023/11/06 10:06:11;;;;;;;2.33;1.58;;;14.40;99.90;;;14.62;64.54;97079.81;10451928;28;20732;-66
2023/11/06 10:11:23;;;;;;;1.58;1.33;;;13.90;99.90;;;14.49;64.61;97076.81;10458143;28;20314;-65
2023/11/06 10:16:27;;;;;;;2.78;1.70;;;13.80;99.90;;;14.46;66.91;97071.56;10455494;28;20701;-65
2023/11/06 10:21:31;;;;;;;1.80;1.40;;;13.70;99.90;;;14.46;65.28;97067.28;10446394;28;20221;-65
2023/11/06 10:26:34;;;;;;;1.73;1.58;;;13.90;99.90;;;14.62;66.35;97056.66;10449836;28;20224;-65
2023/11/06 10:31:40;;;;;;;1.88;1.50;;;14.00;99.90;;;14.83;64.91;97073.50;10450506;28;20225;-66
2023/11/06 10:36:45;;;;;;;1.48;1.38;;;14.20;99.90;;;14.98;63.32;97057.63;10450597;28;20572;-65
2023/11/06 10:41:49;;;;;;;1.75;1.60;;;14.40;99.90;;;15.17;63.71;97051.25;10451449;28;20217;-65
2023/11/06 10:46:55;;;;;;;1.40;1.30;;;14.80;99.90;;;15.25;60.86;97048.06;10453998;28;20229;-65
2023/11/06 10:51:59;;;;;;;2.72;1.38;;;14.80;99.90;;;15.05;60.84;97049.22;10452114;28;20221;-64
2023/11/06 10:57:02;;;;;;;2.03;1.20;;;14.60;99.90;;;15.24;60.93;97048.84;10454864;28;20724;-65
2023/11/06 11:02:07;;;;;;;1.20;1.10;;;14.70;99.90;;;15.38;60.51;97059.50;10455316;22;20688;-66
2023/11/06 11:07:11;;;;;;;1.58;1.40;;;14.80;99.90;;;15.29;59.13;97054.13;10449196;28;20889;-65
2023/11/06 11:12:14;;;;;;;1.35;1.20;;;14.80;99.90;;;15.06;59.48;97056.13;10445260;28;20231;-65
2023/11/06 11:17:19;;;;;;;1.75;1.10;;;14.50;99.90;;;15.04;59.53;97057.78;10443294;28;20229;-67
2023/11/06 11:22:24;;;;;;;1.83;1.38;;;14.30;99.90;;;15.04;60.81;97068.06;10442450;28;20277;-65
2023/11/06 11:27:31;;;;;;;1.77;1.40;;;14.30;99.90;;;15.05;60.40;97059.50;10437741;28;20224;-65
2023/11/06 11:32:51;;;;;;;1.35;1.25;;;14.40;99.90;;;14.92;60.46;97063.47;10433922;28;20224;-66
2023/11/06 11:37:57;;;;;;;1.58;1.20;;;14.00;99.90;;;14.57;62.33;97063.38;10439796;28;20316;-65
2023/11/06 11:43:49;;;;;;;2.20;1.08;;;13.70;99.90;;;14.59;62.05;97063.38;10438190;28;20217;-65
2023/11/06 11:48:54;;;;;;;2.20;1.42;;;13.70;99.90;;;14.67;63.46;97064.47;10450082;28;20237;-65
2023/11/06 11:53:58;;;;;;;14.75;10.88;;;13.70;99.90;;;14.85;61.94;97067.59;10441760;28;20238;-65
2023/11/06 11:59:01;;;;;;;5.38;4.00;;;14.00;99.90;;;14.93;60.98;97064.34;10439110;28;20607;-65
2023/11/06 12:04:20;;;;;;;7.20;4.80;;;13.90;99.90;;;14.89;61.11;97065.09;10441783;28;20221;-67
2023/11/06 12:09:23;;;;;;;10.20;8.82;;;14.20;99.90;;;14.86;61.71;97061.59;10445419;28;20232;-66
2023/11/06 12:14:37;;;;;;;20.08;15.95;;;14.10;99.90;;;14.84;61.66;97063.25;10443931;28;20589;-65
2023/11/06 12:19:42;;;;;;;8.23;7.43;;;14.10;99.90;;;14.79;62.64;97058.81;10447306;28;20711;-67
2023/11/06 12:24:50;;;;;;;2.38;2.10;;;14.00;99.90;;;15.19;61.88;97052.16;10438571;28;20248;-66
2023/11/06 12:30:01;;;;;;;1.80;1.70;;;14.50;99.90;;;15.31;59.93;97058.50;10434840;28;20240;-66
2023/11/06 12:35:11;;;;;;;1.00;1.00;;;14.60;99.90;;;15.21;59.48;97055.63;10433217;28;20235;-65
2023/11/06 12:40:15;;;;;;;2.10;1.75;;;14.50;99.90;;;15.25;60.83;97042.91;10436576;28;20225;-66
2023/11/06 12:45:31;;;;;;;1.55;1.45;;;14.40;99.90;;;15.06;60.79;97053.53;10434849;28;20259;-65
2023/11/06 12:50:35;;;;;;;1.42;1.30;;;14.30;99.90;;;15.14;61.89;97054.63;10443123;28;20235;-66
2023/11/06 12:55:41;;;;;;;1.88;1.20;;;14.30;99.90;;;15.16;60.90;97052.94;10437250;28;20228;-65
2023/11/06 13:00:48;;;;;;;1.70;1.25;;;14.40;99.90;;;15.02;60.87;97046.56;10437418;28;20232;-65
2023/11/06 13:05:56;;;;;;;1.35;1.20;;;14.20;99.90;;;14.92;61.03;97049.72;10445598;28;20704;-66
2023/11/06 13:11:00;;;;;;;1.10;1.10;;;14.20;99.90;;;14.87;62.09;97049.59;10437059;28;20229;-66
2023/11/06 13:16:09;;;;;;;1.60;1.08;;;14.10;99.90;;;14.81;63.11;97049.44;10440757;28;20331;-66
2023/11/06 13:21:18;;;;;;;1.45;1.35;;;14.00;99.90;;;14.99;61.93;97046.47;10433065;28;20315;-66
2023/11/06 13:26:22;;;;;;;2.45;1.40;;;14.10;99.90;;;14.87;61.64;97060.75;10437714;28;20228;-66
2023/11/06 13:31:27;;;;;;;3.40;3.10;;;14.20;99.90;;;14.80;62.78;97068.28;10446653;28;20224;-65
2023/11/06 13:36:33;;;;;;;2.22;1.50;;;13.90;99.90;;;14.79;64.25;97076.81;10436204;28;20228;-67
2023/11/06 13:41:36;;;;;;;1.50;1.40;;;13.90;99.90;;;14.69;61.19;97062.84;10444285;28;20304;-66
2023/11/06 13:46:40;;;;;;;1.40;1.30;;;14.10;99.90;;;14.42;63.68;97066.34;10441909;28;20229;-66
2023/11/06 13:51:49;;;;;;;1.10;1.10;;;13.80;99.90;;;14.51;63.03;97070.00;10437040;28;20233;-67
2023/11/06 13:56:53;;;;;;;1.20;1.10;;;13.70;99.90;;;14.42;61.83;97068.00;10443652;28;20248;-65
2023/11/06 14:02:00;;;;;;;1.40;1.30;;;13.70;99.90;;;14.40;62.07;97061.97;10446466;28;20238;-66
2023/11/06 14:07:11;;;;;;;1.15;1.13;;;13.90;99.90;;;14.40;64.15;97062.84;10434716;28;20221;-67
2023/11/06 14:12:14;;;;;;;1.05;1.05;;;13.80;99.90;;;14.44;63.90;97076.66;10440408;28;20233;-66
2023/11/06 14:17:17;;;;;;;1.25;1.15;;;13.60;99.90;;;14.43;63.89;97064.63;10442357;28;20273;-67
2023/11/06 14:22:22;;;;;;;1.35;1.15;;;13.60;99.90;;;14.41;64.60;97069.72;10431202;28;20282;-66
2023/11/06 14:27:25;;;;;;;4.10;3.70;;;13.50;99.90;;;14.16;64.36;97070.72;10427360;28;20228;-66
2023/11/06 14:32:28;;;;;;;1.60;1.50;;;13.30;99.90;;;14.18;65.32;97061.31;10439728;28;20400;-66
2023/11/06 14:37:36;;;;;;;1.48;1.27;;;13.40;99.90;;;14.20;65.52;97069.09;10446241;28;20221;-66
2023/11/06 14:42:40;;;;;;;1.65;1.55;;;13.40;99.90;;;14.28;65.54;97069.31;10447973;28;20212;-66
2023/11/06 14:47:44;;;;;;;1.90;1.30;;;13.50;99.90;;;14.23;65.50;97058.91;10431796;28;20229;-64
2023/11/06 14:52:50;;;;;;;2.08;1.88;;;13.40;99.90;;;14.24;65.91;97055.50;10433965;28;20240;-67
2023/11/06 14:57:54;;;;;;;2.50;1.40;;;13.40;99.90;;;14.23;66.18;97058.03;10428459;28;20233;-65
2023/11/06 15:02:57;;;;;;;1.90;1.60;;;13.30;99.90;;;14.27;65.50;97068.44;10434818;28;20217;-67
2023/11/06 15:08:02;;;;;;;2.88;2.63;;;13.40;99.90;;;14.07;67.29;97072.09;10442529;28;20237;-65
2023/11/06 15:13:05;;;;;;;1.25;1.25;;;13.20;99.90;;;14.05;68.04;97071.19;10438669;28;20689;-65
2023/11/06 15:18:10;;;;;;;1.45;1.35;;;13.10;99.90;;;13.82;70.03;97076.50;10434893;28;20238;-65
2023/11/06 15:23:17;;;;;;;1.55;1.40;;;12.90;99.90;;;13.77;70.39;97077.19;10434554;28;20229;-66
2023/11/06 15:28:20;;;;;;;1.52;1.40;;;12.80;99.90;;;13.81;69.82;97077.31;10438615;28;20236;-64
2023/11/06 15:33:23;;;;;;;1.60;1.50;;;12.80;99.90;;;13.72;68.54;97079.59;10436358;28;20603;-66
2023/11/06 15:38:28;;;;;;;3.70;3.42;;;12.80;99.90;;;13.49;67.69;97082.28;10432734;28;20217;-65
2023/11/06 15:43:32;;;;;;;3.95;3.70;;;12.70;99.90;;;13.19;69.29;97087.25;10439727;28;20298;-65
2023/11/06 15:48:37;;;;;;;2.40;2.20;;;12.40;99.90;;;13.05;71.84;97089.31;10432887;28;20231;-64
2023/11/06 15:53:42;;;;;;;3.67;1.92;;;12.20;99.90;;;12.85;72.47;97101.44;10442225;28;20328;-65
2023/11/06 15:58:45;;;;;;;1.98;1.83;;;12.00;99.90;;;12.70;74.65;97112.84;10435562;28;20220;-65
2023/11/06 16:03:48;;;;;;;1.33;1.30;;;11.90;99.90;;;12.79;72.37;97108.03;10440265;28;20594;-65
2023/11/06 16:08:53;;;;;;;1.45;1.40;;;11.90;99.90;;;12.87;72.19;97109.19;10438001;28;20252;-65
2023/11/06 16:13:56;;;;;;;1.23;1.23;;;12.00;99.90;;;12.76;73.84;97107.91;10439831;28;20232;-66
2023/11/06 16:18:59;;;;;;;1.00;1.00;;;11.90;99.90;;;12.70;74.37;97125.66;10431974;28;20438;-66
2023/11/06 16:24:07;;;;;;;3.05;2.42;;;11.90;99.90;;;12.50;75.21;97133.47;10438356;28;20216;-66
2023/11/06 16:29:10;;;;;;;2.53;2.33;;;11.70;99.90;;;12.48;75.34;97124.00;10432873;28;20233;-66
2023/11/06 16:34:14;;;;;;;4.15;3.08;;;11.60;99.90;;;12.59;75.85;97135.50;10441511;28;20323;-63
2023/11/06 16:39:28;;;;;;;2.80;2.33;;;11.70;99.90;;;12.50;78.86;97138.59;10438870;28;20626;-65
2023/11/06 16:44:32;;;;;;;2.33;2.22;;;11.70;99.90;;;12.40;80.54;97142.50;10427282;28;20221;-65
2023/11/06 16:49:35;;;;;;;2.53;2.40;;;11.80;99.90;;;12.47;80.87;97146.16;10422614;28;20250;-64
2023/11/06 16:54:40;;;;;;;3.42;3.13;;;11.70;99.90;;;12.24;83.42;97150.41;10424782;28;20226;-63
2023/11/06 16:59:43;;;;;;;2.33;2.10;;;11.60;99.90;;;12.15;84.75;97165.44;10419816;28;20233;-66
2023/11/06 17:04:48;;;;;;;4.65;4.35;;;11.40;99.90;;;12.12;86.43;97170.44;10426158;28;20287;-64
2023/11/06 17:09:52;;;;;;;1.98;1.88;;;11.30;99.90;;;12.10;86.83;97175.50;10431757;28;20828;-65
2023/11/06 17:14:58;;;;;;;2.25;2.05;;;11.30;99.90;;;11.98;88.92;97194.63;10422540;28;20229;-64
2023/11/06 17:20:01;;;;;;;2.25;2.15;;;11.20;99.90;;;12.05;87.80;97194.06;10424653;28;20236;-64
2023/11/06 17:25:09;;;;;;;1.98;1.88;;;11.20;99.90;;;12.05;87.89;97212.00;10423286;28;20218;-64
2023/11/06 17:30:13;;;;;;;3.40;3.20;;;11.20;99.90;;;12.24;84.57;97222.16;10421553;28;20320;-65
2023/11/06 17:35:16;;;;;;;1.77;1.73;;;11.40;99.90;;;12.14;84.19;97236.28;10428889;28;20237;-64
2023/11/06 17:40:21;;;;;;;2.60;2.40;;;11.40;99.90;;;12.22;83.20;97239.19;10423635;28;20274;-64
2023/11/06 17:45:26;;;;;;;2.63;2.53;;;11.50;99.90;;;12.28;80.65;97246.25;10421996;28;20229;-64
2023/11/06 17:50:30;;;;;;;3.05;2.47;;;11.60;99.90;;;12.32;79.88;97255.78;10437691;28;20244;-64
2023/11/06 17:55:34;;;;;;;2.05;1.95;;;11.60;99.90;;;12.18;79.44;97261.22;10430667;28;20619;-64
2023/11/06 18:00:38;;;;;;;1.80;1.70;;;11.60;99.90;;;12.11;80.99;97272.03;10432123;28;20236;-65
2023/11/06 18:05:41;;;;;;;2.13;2.00;;;11.40;99.90;;;12.17;78.90;97285.09;10436143;28;20229;-64
2023/11/06 18:10:46;;;;;;;3.70;3.40;;;11.50;99.90;;;12.12;79.04;97295.97;10437901;28;20220;-64
2023/11/06 18:15:49;;;;;;;6.15;5.55;;;11.50;99.90;;;12.21;78.94;97304.03;10433643;28;20317;-65
2023/11/06 18:20:52;;;;;;;3.70;3.40;;;11.50;99.90;;;12.08;80.02;97318.03;10425815;28;20750;-65
2023/11/06 18:25:57;;;;;;;2.50;2.30;;;11.30;99.90;;;11.85;80.93;97334.06;10416365;28;20240;-65
2023/11/06 18:31:00;;;;;;;1.70;1.60;;;11.10;99.90;;;11.66;82.73;97335.78;10422726;28;20232;-64
2023/11/06 18:36:04;;;;;;;2.88;2.40;;;10.90;99.90;;;11.70;83.24;97383.78;10431235;28;20240;-65
2023/11/06 18:41:09;;;;;;;1.52;1.52;;;10.90;99.90;;;11.41;84.61;97386.69;10434178;28;20573;-64
2023/11/06 18:46:12;;;;;;;1.90;1.80;;;10.60;99.90;;;11.37;84.56;97389.94;10427087;28;20229;-64
2023/11/06 18:51:15;;;;;;;4.15;3.78;;;10.50;99.90;;;10.90;88.16;97401.31;10428485;28;20660;-64
2023/11/06 18:56:20;;;;;;;7.53;5.50;;;10.30;99.90;;;10.77;91.00;97393.06;10426945;28;20251;-64
2023/11/06 19:01:24;;;;;;;4.88;3.65;;;10.20;99.90;;;10.37;93.07;97403.88;10436469;28;20236;-64
2023/11/06 19:06:27;;;;;;;3.65;3.35;;;9.90;99.90;;;10.17;96.02;97396.84;10437718;28;20266;-65
2023/11/06 19:11:32;;;;;;;5.88;5.30;;;9.70;99.90;;;10.17;95.73;97414.75;10429415;28;20236;-64
2023/11/06 19:16:35;;;;;;;11.30;9.18;;;9.70;99.90;;;10.18;97.08;97421.59;10432858;28;22360;-64
2023/11/06 19:21:40;;;;;;;7.55;6.28;;;9.70;99.90;;;10.22;95.66;97423.53;10428510;28;20508;-63
2023/11/06 19:26:45;;;;;;;8.48;6.93;;;9.60;99.90;;;10.13;97.42;97429.03;10432629;28;20708;-64
2023/11/06 19:31:50;;;;;;;15.38;13.30;;;9.60;99.90;;;10.06;97.65;97421.84;10422975;28;20718;-65
2023/11/06 19:36:54;;;;;;;12.65;11.07;;;9.50;99.90;;;10.00;97.75;97430.88;10420969;28;20992;-64
2023/11/06 19:41:59;;;;;;;5.53;4.70;;;9.40;99.90;;;9.93;98.51;97435.66;10432622;28;20233;-63
2023/11/06 19:47:02;;;;;;;27.50;18.50;;;9.30;99.90;;;9.96;98.65;97444.25;10427351;28;20312;-63
2023/11/06 19:52:06;;;;;;;151.02;78.47;;;9.40;99.90;;;10.07;100.00;97446.59;10432568;28;20233;-65
2023/11/06 19:57:13;;;;;;;24.45;15.90;;;9.40;99.90;;;10.00;100.00;97451.28;10432780;28;20620;-65
2023/11/06 20:02:16;;;;;;;60.13;33.03;;;9.40;99.90;;;10.01;100.00;97442.81;10417976;28;20233;-64
2023/11/06 20:07:20;;;;;;;95.55;52.15;;;9.40;99.90;;;10.00;100.00;97447.06;10435784;28;20307;-64
2023/11/06 20:12:24;;;;;;;301.02;174.43;;;9.40;99.90;;;9.92;100.00;97444.09;10424427;28;20707;-64
2023/11/06 20:17:28;;;;;;;151.48;93.60;;;9.30;99.90;;;9.91;100.00;97438.91;10416764;28;20236;-64
2023/11/06 20:22:31;;;;;;;26.77;19.35;;;9.30;99.90;;;9.87;100.00;97450.66;10406493;28;20228;-64
2023/11/06 20:27:36;;;;;;;16.50;13.07;;;9.20;99.90;;;9.82;100.00;97451.22;10423265;28;20232;-62
2023/11/06 20:32:41;;;;;;;17.52;15.73;;;9.10;99.90;;;9.80;100.00;97448.56;10426446;28;20355;-64
2023/11/06 20:37:44;;;;;;;8.02;7.22;;;9.10;99.90;;;9.65;100.00;97453.72;10421307;28;20256;-64
2023/11/06 20:42:49;;;;;;;6.68;6.07;;;9.00;99.90;;;9.60;100.00;97456.81;10427649;28;20225;-64
2023/11/06 20:47:52;;;;;;;6.70;6.05;;;8.90;99.90;;;9.54;100.00;97454.81;10414788;28;20237;-64
2023/11/06 20:52:56;;;;;;;6.50;6.00;;;8.90;99.90;;;9.56;100.00;97467.66;10425291;28;20220;-63
2023/11/06 20:58:01;;;;;;;5.20;4.80;;;8.80;99.90;;;9.56;100.00;97475.31;10419942;28;20763;-63
2023/11/06 21:03:04;;;;;;;7.88;6.85;;;8.80;99.90;;;9.52;100.00;97481.03;10425841;28;20232;-64
2023/11/06 21:08:08;;;;;;;11.85;10.85;;;8.80;99.90;;;9.52;100.00;97481.91;10423994;28;21034;-64
2023/11/06 21:13:12;;;;;;;7.53;6.82;;;8.90;99.90;;;9.47;100.00;97479.13;10415637;28;20907;-64